sensor_id;sensor_type;location;lat;lon;timestamp;P1;durP1;ratioP1;P2;durP2;ratioP2
36001;SDS011;22070;50.922;5.430;2023-03-14T00:00:05;6.45;;;1.17;;
36001;SDS011;22070;50.922;5.430;2023-03-14T00:02:33;5.65;;;1.10;;
36001;SDS011;22070;50.922;5.430;2023-03-14T00:05:00;5.45;;;1.30;;
36001;SDS011;22070;50.922;5.430;2023-03-14T00:07:27;5.85;;;1.20;;
36001;SDS011;22070;50.922;5.430;2023-03-14T00:09:56;6.63;;;1.65;;
36001;SDS011;22070;50.922;5.430;2023-03-14T00:12:22;6.32;;;0.95;;
36001;SDS011;22070;50.922;5.430;2023-03-14T00:14:48;3.10;;;0.53;;
36001;SDS011;22070;50.922;5.430;2023-03-14T00:17:13;7.07;;;1.42;;
36001;SDS011;22070;50.922;5.430;2023-03-14T00:19:39;6.40;;;0.80;;
36001;SDS011;22070;50.922;5.430;2023-03-14T00:22:04;5.70;;;0.67;;
36001;SDS011;22070;50.922;5.430;2023-03-14T00:24:30;3.97;;;0.73;;
36001;SDS011;22070;50.922;5.430;2023-03-14T00:26:56;6.38;;;1.10;;
36001;SDS011;22070;50.922;5.430;2023-03-14T00:29:21;3.92;;;0.60;;
36001;SDS011;22070;50.922;5.430;2023-03-14T00:31:47;5.83;;;1.10;;
36001;SDS011;22070;50.922;5.430;2023-03-14T00:34:12;3.20;;;0.73;;
36001;SDS011;22070;50.922;5.430;2023-03-14T00:36:38;4.40;;;1.20;;
36001;SDS011;22070;50.922;5.430;2023-03-14T00:39:04;4.20;;;0.90;;
36001;SDS011;22070;50.922;5.430;2023-03-14T00:41:29;3.40;;;0.77;;
36001;SDS011;22070;50.922;5.430;2023-03-14T00:43:55;3.40;;;0.90;;
36001;SDS011;22070;50.922;5.430;2023-03-14T00:46:21;6.32;;;1.00;;
36001;SDS011;22070;50.922;5.430;2023-03-14T00:48:46;5.78;;;1.42;;
36001;SDS011;22070;50.922;5.430;2023-03-14T00:51:12;4.47;;;1.17;;
36001;SDS011;22070;50.922;5.430;2023-03-14T00:53:40;2.15;;;0.82;;
36001;SDS011;22070;50.922;5.430;2023-03-14T00:56:07;3.47;;;1.00;;
36001;SDS011;22070;50.922;5.430;2023-03-14T00:58:35;5.50;;;0.90;;
36001;SDS011;22070;50.922;5.430;2023-03-14T01:01:12;5.63;;;1.00;;
36001;SDS011;22070;50.922;5.430;2023-03-14T01:03:43;6.75;;;1.13;;
36001;SDS011;22070;50.922;5.430;2023-03-14T01:06:09;6.30;;;1.25;;
36001;SDS011;22070;50.922;5.430;2023-03-14T01:08:37;6.72;;;1.25;;
36001;SDS011;22070;50.922;5.430;2023-03-14T01:11:07;6.70;;;1.40;;
36001;SDS011;22070;50.922;5.430;2023-03-14T01:13:34;7.53;;;1.50;;
36001;SDS011;22070;50.922;5.430;2023-03-14T01:16:03;6.38;;;0.95;;
36001;SDS011;22070;50.922;5.430;2023-03-14T01:18:31;6.20;;;1.23;;
36001;SDS011;22070;50.922;5.430;2023-03-14T01:20:58;10.65;;;1.50;;
36001;SDS011;22070;50.922;5.430;2023-03-14T01:23:24;8.97;;;1.30;;
36001;SDS011;22070;50.922;5.430;2023-03-14T01:25:49;4.57;;;0.90;;
36001;SDS011;22070;50.922;5.430;2023-03-14T01:28:15;5.13;;;1.10;;
36001;SDS011;22070;50.922;5.430;2023-03-14T01:30:41;8.70;;;1.20;;
36001;SDS011;22070;50.922;5.430;2023-03-14T01:33:06;7.63;;;1.17;;
36001;SDS011;22070;50.922;5.430;2023-03-14T01:35:32;8.33;;;1.20;;
36001;SDS011;22070;50.922;5.430;2023-03-14T01:37:58;11.27;;;1.80;;
36001;SDS011;22070;50.922;5.430;2023-03-14T01:40:23;10.25;;;1.23;;
36001;SDS011;22070;50.922;5.430;2023-03-14T01:42:56;5.65;;;1.30;;
36001;SDS011;22070;50.922;5.430;2023-03-14T01:48:26;9.07;;;1.30;;
36001;SDS011;22070;50.922;5.430;2023-03-14T01:50:55;7.70;;;1.20;;
36001;SDS011;22070;50.922;5.430;2023-03-14T01:53:21;6.17;;;1.30;;
36001;SDS011;22070;50.922;5.430;2023-03-14T01:55:48;6.67;;;1.00;;
36001;SDS011;22070;50.922;5.430;2023-03-14T01:58:17;11.57;;;1.40;;
36001;SDS011;22070;50.922;5.430;2023-03-14T02:00:44;11.10;;;1.35;;
36001;SDS011;22070;50.922;5.430;2023-03-14T02:03:11;8.43;;;1.40;;
36001;SDS011;22070;50.922;5.430;2023-03-14T02:05:41;4.95;;;1.30;;
36001;SDS011;22070;50.922;5.430;2023-03-14T02:08:14;8.35;;;1.67;;
36001;SDS011;22070;50.922;5.430;2023-03-14T02:10:43;7.07;;;1.33;;
36001;SDS011;22070;50.922;5.430;2023-03-14T02:13:10;10.93;;;1.35;;
36001;SDS011;22070;50.922;5.430;2023-03-14T02:15:38;7.82;;;1.58;;
36001;SDS011;22070;50.922;5.430;2023-03-14T02:18:04;10.85;;;1.60;;
36001;SDS011;22070;50.922;5.430;2023-03-14T02:23:15;9.77;;;1.40;;
36001;SDS011;22070;50.922;5.430;2023-03-14T02:25:58;7.45;;;1.48;;
36001;SDS011;22070;50.922;5.430;2023-03-14T02:28:29;5.63;;;1.30;;
36001;SDS011;22070;50.922;5.430;2023-03-14T02:30:54;13.70;;;1.50;;
36001;SDS011;22070;50.922;5.430;2023-03-14T02:33:20;7.50;;;1.45;;
36001;SDS011;22070;50.922;5.430;2023-03-14T02:41:18;7.45;;;1.45;;
36001;SDS011;22070;50.922;5.430;2023-03-14T02:43:44;9.18;;;1.38;;
36001;SDS011;22070;50.922;5.430;2023-03-14T02:46:13;4.47;;;0.73;;
36001;SDS011;22070;50.922;5.430;2023-03-14T02:48:44;7.47;;;1.10;;
36001;SDS011;22070;50.922;5.430;2023-03-14T02:51:14;9.43;;;1.10;;
36001;SDS011;22070;50.922;5.430;2023-03-14T02:53:41;9.77;;;1.30;;
36001;SDS011;22070;50.922;5.430;2023-03-14T02:56:08;7.47;;;1.10;;
36001;SDS011;22070;50.922;5.430;2023-03-14T02:58:34;13.18;;;2.08;;
36001;SDS011;22070;50.922;5.430;2023-03-14T03:01:00;8.90;;;1.30;;
36001;SDS011;22070;50.922;5.430;2023-03-14T03:03:26;7.78;;;1.40;;
36001;SDS011;22070;50.922;5.430;2023-03-14T03:05:52;15.35;;;2.30;;
36001;SDS011;22070;50.922;5.430;2023-03-14T03:08:19;8.52;;;1.02;;
36001;SDS011;22070;50.922;5.430;2023-03-14T03:10:46;4.78;;;0.93;;
36001;SDS011;22070;50.922;5.430;2023-03-14T03:13:12;7.17;;;1.50;;
36001;SDS011;22070;50.922;5.430;2023-03-14T03:15:38;10.77;;;0.90;;
36001;SDS011;22070;50.922;5.430;2023-03-14T03:18:05;4.68;;;0.90;;
36001;SDS011;22070;50.922;5.430;2023-03-14T03:20:31;3.63;;;0.75;;
36001;SDS011;22070;50.922;5.430;2023-03-14T03:22:58;7.93;;;1.20;;
36001;SDS011;22070;50.922;5.430;2023-03-14T03:25:24;3.58;;;1.13;;
36001;SDS011;22070;50.922;5.430;2023-03-14T03:27:49;8.27;;;0.90;;
36001;SDS011;22070;50.922;5.430;2023-03-14T03:30:15;5.88;;;1.60;;
36001;SDS011;22070;50.922;5.430;2023-03-14T03:32:41;6.75;;;1.50;;
36001;SDS011;22070;50.922;5.430;2023-03-14T03:35:07;7.47;;;1.70;;
36001;SDS011;22070;50.922;5.430;2023-03-14T03:37:33;6.07;;;1.53;;
36001;SDS011;22070;50.922;5.430;2023-03-14T03:40:00;17.58;;;1.73;;
36001;SDS011;22070;50.922;5.430;2023-03-14T03:42:26;3.77;;;1.50;;
36001;SDS011;22070;50.922;5.430;2023-03-14T03:44:52;11.80;;;1.33;;
36001;SDS011;22070;50.922;5.430;2023-03-14T03:47:18;12.30;;;1.85;;
36001;SDS011;22070;50.922;5.430;2023-03-14T03:49:44;12.82;;;2.22;;
36001;SDS011;22070;50.922;5.430;2023-03-14T03:52:09;11.13;;;1.80;;
36001;SDS011;22070;50.922;5.430;2023-03-14T03:54:35;11.33;;;2.50;;
36001;SDS011;22070;50.922;5.430;2023-03-14T03:57:01;14.10;;;2.00;;
36001;SDS011;22070;50.922;5.430;2023-03-14T03:59:27;11.18;;;2.10;;
36001;SDS011;22070;50.922;5.430;2023-03-14T04:01:52;10.07;;;2.00;;
36001;SDS011;22070;50.922;5.430;2023-03-14T04:04:18;6.13;;;1.50;;
36001;SDS011;22070;50.922;5.430;2023-03-14T04:06:44;13.43;;;1.70;;
36001;SDS011;22070;50.922;5.430;2023-03-14T04:09:10;8.13;;;1.40;;
36001;SDS011;22070;50.922;5.430;2023-03-14T04:11:35;8.67;;;1.20;;
36001;SDS011;22070;50.922;5.430;2023-03-14T04:14:02;7.63;;;1.13;;
36001;SDS011;22070;50.922;5.430;2023-03-14T04:16:28;8.00;;;1.40;;
36001;SDS011;22070;50.922;5.430;2023-03-14T04:18:56;7.03;;;1.35;;
36001;SDS011;22070;50.922;5.430;2023-03-14T04:21:22;9.07;;;1.30;;
36001;SDS011;22070;50.922;5.430;2023-03-14T04:23:48;9.17;;;1.30;;
36001;SDS011;22070;50.922;5.430;2023-03-14T04:26:14;7.18;;;1.27;;
36001;SDS011;22070;50.922;5.430;2023-03-14T04:28:40;4.23;;;1.10;;
36001;SDS011;22070;50.922;5.430;2023-03-14T04:31:06;4.07;;;0.90;;
36001;SDS011;22070;50.922;5.430;2023-03-14T04:33:36;5.65;;;1.15;;
36001;SDS011;22070;50.922;5.430;2023-03-14T04:36:02;8.35;;;1.15;;
36001;SDS011;22070;50.922;5.430;2023-03-14T04:38:29;5.53;;;1.20;;
36001;SDS011;22070;50.922;5.430;2023-03-14T04:40:55;3.47;;;0.63;;
36001;SDS011;22070;50.922;5.430;2023-03-14T04:43:21;4.28;;;0.82;;
36001;SDS011;22070;50.922;5.430;2023-03-14T04:45:46;3.45;;;1.42;;
36001;SDS011;22070;50.922;5.430;2023-03-14T04:48:12;2.00;;;0.60;;
36001;SDS011;22070;50.922;5.430;2023-03-14T04:50:38;2.45;;;0.57;;
36001;SDS011;22070;50.922;5.430;2023-03-14T04:53:04;3.27;;;0.60;;
36001;SDS011;22070;50.922;5.430;2023-03-14T04:55:30;2.80;;;0.60;;
36001;SDS011;22070;50.922;5.430;2023-03-14T04:57:57;7.28;;;0.50;;
36001;SDS011;22070;50.922;5.430;2023-03-14T05:00:23;5.47;;;0.73;;
36001;SDS011;22070;50.922;5.430;2023-03-14T05:02:49;1.50;;;0.47;;
36001;SDS011;22070;50.922;5.430;2023-03-14T05:05:15;1.87;;;0.40;;
36001;SDS011;22070;50.922;5.430;2023-03-14T05:07:41;3.20;;;0.50;;
36001;SDS011;22070;50.922;5.430;2023-03-14T05:10:07;2.30;;;0.70;;
36001;SDS011;22070;50.922;5.430;2023-03-14T05:12:33;1.65;;;0.40;;
36001;SDS011;22070;50.922;5.430;2023-03-14T05:14:59;2.35;;;0.47;;
36001;SDS011;22070;50.922;5.430;2023-03-14T05:17:24;1.63;;;0.50;;
36001;SDS011;22070;50.922;5.430;2023-03-14T05:19:50;1.50;;;0.17;;
36001;SDS011;22070;50.922;5.430;2023-03-14T05:22:16;0.73;;;0.20;;
36001;SDS011;22070;50.922;5.430;2023-03-14T05:24:41;1.73;;;0.35;;
36001;SDS011;22070;50.922;5.430;2023-03-14T05:27:07;0.95;;;0.40;;
36001;SDS011;22070;50.922;5.430;2023-03-14T05:29:32;0.43;;;0.25;;
36001;SDS011;22070;50.922;5.430;2023-03-14T05:31:58;1.50;;;0.20;;
36001;SDS011;22070;50.922;5.430;2023-03-14T05:34:23;0.90;;;0.30;;
36001;SDS011;22070;50.922;5.430;2023-03-14T05:36:49;4.05;;;0.45;;
36001;SDS011;22070;50.922;5.430;2023-03-14T05:39:15;0.73;;;0.20;;
36001;SDS011;22070;50.922;5.430;2023-03-14T05:41:40;1.27;;;0.30;;
36001;SDS011;22070;50.922;5.430;2023-03-14T05:44:06;0.40;;;0.13;;
36001;SDS011;22070;50.922;5.430;2023-03-14T05:46:31;0.50;;;0.30;;
36001;SDS011;22070;50.922;5.430;2023-03-14T05:48:57;0.82;;;0.40;;
36001;SDS011;22070;50.922;5.430;2023-03-14T05:51:23;0.37;;;0.30;;
36001;SDS011;22070;50.922;5.430;2023-03-14T05:53:49;0.57;;;0.40;;
36001;SDS011;22070;50.922;5.430;2023-03-14T05:56:14;0.28;;;0.28;;
36001;SDS011;22070;50.922;5.430;2023-03-14T05:58:40;1.33;;;0.63;;
36001;SDS011;22070;50.922;5.430;2023-03-14T06:01:06;0.57;;;0.40;;
36001;SDS011;22070;50.922;5.430;2023-03-14T06:03:33;0.52;;;0.32;;
36001;SDS011;22070;50.922;5.430;2023-03-14T06:05:59;1.17;;;0.37;;
36001;SDS011;22070;50.922;5.430;2023-03-14T06:08:24;0.60;;;0.43;;
36001;SDS011;22070;50.922;5.430;2023-03-14T06:10:51;1.33;;;0.40;;
36001;SDS011;22070;50.922;5.430;2023-03-14T06:13:17;0.85;;;0.50;;
36001;SDS011;22070;50.922;5.430;2023-03-14T06:15:43;1.43;;;0.67;;
36001;SDS011;22070;50.922;5.430;2023-03-14T06:18:08;1.95;;;0.82;;
36001;SDS011;22070;50.922;5.430;2023-03-14T06:20:38;0.88;;;0.68;;
36001;SDS011;22070;50.922;5.430;2023-03-14T06:23:04;1.45;;;0.90;;
36001;SDS011;22070;50.922;5.430;2023-03-14T06:25:31;1.77;;;1.15;;
36001;SDS011;22070;50.922;5.430;2023-03-14T06:27:57;3.47;;;1.42;;
36001;SDS011;22070;50.922;5.430;2023-03-14T06:30:23;2.60;;;1.23;;
36001;SDS011;22070;50.922;5.430;2023-03-14T06:32:49;1.58;;;1.48;;
36001;SDS011;22070;50.922;5.430;2023-03-14T06:35:14;3.43;;;1.40;;
36001;SDS011;22070;50.922;5.430;2023-03-14T06:37:40;1.40;;;1.30;;
36001;SDS011;22070;50.922;5.430;2023-03-14T06:40:06;2.00;;;1.50;;
36001;SDS011;22070;50.922;5.430;2023-03-14T06:42:36;1.98;;;1.52;;
36001;SDS011;22070;50.922;5.430;2023-03-14T06:45:02;3.05;;;1.42;;
36001;SDS011;22070;50.922;5.430;2023-03-14T06:47:28;2.93;;;1.70;;
36001;SDS011;22070;50.922;5.430;2023-03-14T06:49:54;3.53;;;1.58;;
36001;SDS011;22070;50.922;5.430;2023-03-14T06:52:19;2.40;;;1.90;;
36001;SDS011;22070;50.922;5.430;2023-03-14T06:54:45;2.70;;;1.60;;
36001;SDS011;22070;50.922;5.430;2023-03-14T06:57:10;2.15;;;1.48;;
36001;SDS011;22070;50.922;5.430;2023-03-14T06:59:36;2.38;;;1.55;;
36001;SDS011;22070;50.922;5.430;2023-03-14T07:02:02;3.13;;;1.80;;
36001;SDS011;22070;50.922;5.430;2023-03-14T07:04:27;1.87;;;1.20;;
36001;SDS011;22070;50.922;5.430;2023-03-14T07:06:53;3.70;;;1.45;;
36001;SDS011;22070;50.922;5.430;2023-03-14T07:09:19;2.60;;;1.50;;
36001;SDS011;22070;50.922;5.430;2023-03-14T07:11:45;4.68;;;1.05;;
36001;SDS011;22070;50.922;5.430;2023-03-14T07:14:10;2.22;;;1.20;;
36001;SDS011;22070;50.922;5.430;2023-03-14T07:16:36;1.58;;;1.00;;
36001;SDS011;22070;50.922;5.430;2023-03-14T07:19:02;3.08;;;1.48;;
36001;SDS011;22070;50.922;5.430;2023-03-14T07:21:28;1.60;;;1.17;;
36001;SDS011;22070;50.922;5.430;2023-03-14T07:23:54;2.38;;;1.30;;
36001;SDS011;22070;50.922;5.430;2023-03-14T07:26:20;1.67;;;0.85;;
36001;SDS011;22070;50.922;5.430;2023-03-14T07:28:46;3.40;;;0.90;;
36001;SDS011;22070;50.922;5.430;2023-03-14T07:31:11;1.08;;;0.85;;
36001;SDS011;22070;50.922;5.430;2023-03-14T07:33:37;1.08;;;0.80;;
36001;SDS011;22070;50.922;5.430;2023-03-14T07:36:03;4.05;;;1.30;;
36001;SDS011;22070;50.922;5.430;2023-03-14T07:38:29;1.07;;;0.87;;
36001;SDS011;22070;50.922;5.430;2023-03-14T07:40:59;2.40;;;1.00;;
36001;SDS011;22070;50.922;5.430;2023-03-14T07:43:25;4.10;;;1.17;;
36001;SDS011;22070;50.922;5.430;2023-03-14T07:45:51;3.75;;;1.10;;
36001;SDS011;22070;50.922;5.430;2023-03-14T07:48:16;6.93;;;1.10;;
36001;SDS011;22070;50.922;5.430;2023-03-14T07:50:42;5.20;;;1.10;;
36001;SDS011;22070;50.922;5.430;2023-03-14T07:53:08;3.33;;;0.93;;
36001;SDS011;22070;50.922;5.430;2023-03-14T07:55:34;3.53;;;0.80;;
36001;SDS011;22070;50.922;5.430;2023-03-14T07:58:00;2.20;;;1.13;;
36001;SDS011;22070;50.922;5.430;2023-03-14T08:00:25;2.72;;;1.33;;
36001;SDS011;22070;50.922;5.430;2023-03-14T08:02:51;0.50;;;0.40;;
36001;SDS011;22070;50.922;5.430;2023-03-14T08:05:17;1.02;;;0.63;;
36001;SDS011;22070;50.922;5.430;2023-03-14T08:07:42;3.50;;;2.03;;
36001;SDS011;22070;50.922;5.430;2023-03-14T08:10:08;5.57;;;2.70;;
36001;SDS011;22070;50.922;5.430;2023-03-14T08:12:34;1.40;;;1.10;;
36001;SDS011;22070;50.922;5.430;2023-03-14T08:15:00;1.88;;;1.35;;
36001;SDS011;22070;50.922;5.430;2023-03-14T08:17:26;2.20;;;1.23;;
36001;SDS011;22070;50.922;5.430;2023-03-14T08:19:52;4.03;;;1.08;;
36001;SDS011;22070;50.922;5.430;2023-03-14T08:22:17;2.22;;;0.93;;
36001;SDS011;22070;50.922;5.430;2023-03-14T08:24:43;2.00;;;0.63;;
36001;SDS011;22070;50.922;5.430;2023-03-14T08:27:09;2.42;;;0.90;;
36001;SDS011;22070;50.922;5.430;2023-03-14T08:29:34;1.20;;;0.90;;
36001;SDS011;22070;50.922;5.430;2023-03-14T08:32:00;1.90;;;1.05;;
36001;SDS011;22070;50.922;5.430;2023-03-14T08:34:26;1.08;;;0.82;;
36001;SDS011;22070;50.922;5.430;2023-03-14T08:36:51;1.55;;;0.95;;
36001;SDS011;22070;50.922;5.430;2023-03-14T08:39:17;1.98;;;1.02;;
36001;SDS011;22070;50.922;5.430;2023-03-14T08:41:42;1.60;;;1.25;;
36001;SDS011;22070;50.922;5.430;2023-03-14T08:44:09;5.30;;;1.52;;
36001;SDS011;22070;50.922;5.430;2023-03-14T08:49:02;1.40;;;1.30;;
36001;SDS011;22070;50.922;5.430;2023-03-14T08:51:28;1.70;;;1.57;;
36001;SDS011;22070;50.922;5.430;2023-03-14T08:53:53;3.00;;;1.80;;
36001;SDS011;22070;50.922;5.430;2023-03-14T08:56:19;4.57;;;1.42;;
36001;SDS011;22070;50.922;5.430;2023-03-14T08:58:44;2.40;;;1.33;;
36001;SDS011;22070;50.922;5.430;2023-03-14T09:01:10;1.75;;;1.50;;
36001;SDS011;22070;50.922;5.430;2023-03-14T09:03:36;3.33;;;1.40;;
36001;SDS011;22070;50.922;5.430;2023-03-14T09:06:07;2.05;;;1.60;;
36001;SDS011;22070;50.922;5.430;2023-03-14T09:08:34;4.20;;;1.50;;
36001;SDS011;22070;50.922;5.430;2023-03-14T09:11:00;2.83;;;1.60;;
36001;SDS011;22070;50.922;5.430;2023-03-14T09:13:26;5.80;;;1.50;;
36001;SDS011;22070;50.922;5.430;2023-03-14T09:15:55;3.63;;;1.83;;
36001;SDS011;22070;50.922;5.430;2023-03-14T09:18:21;5.47;;;2.60;;
36001;SDS011;22070;50.922;5.430;2023-03-14T09:20:47;25.93;;;3.37;;
36001;SDS011;22070;50.922;5.430;2023-03-14T09:23:13;5.80;;;1.30;;
36001;SDS011;22070;50.922;5.430;2023-03-14T09:25:39;6.30;;;2.20;;
36001;SDS011;22070;50.922;5.430;2023-03-14T09:28:05;5.65;;;1.25;;
36001;SDS011;22070;50.922;5.430;2023-03-14T09:30:31;4.30;;;1.80;;
36001;SDS011;22070;50.922;5.430;2023-03-14T09:32:57;4.40;;;1.70;;
36001;SDS011;22070;50.922;5.430;2023-03-14T09:35:24;2.95;;;2.15;;
36001;SDS011;22070;50.922;5.430;2023-03-14T09:37:50;3.33;;;1.67;;
36001;SDS011;22070;50.922;5.430;2023-03-14T09:40:16;3.43;;;1.60;;
36001;SDS011;22070;50.922;5.430;2023-03-14T09:42:44;2.10;;;1.63;;
36001;SDS011;22070;50.922;5.430;2023-03-14T09:45:21;3.92;;;1.85;;
36001;SDS011;22070;50.922;5.430;2023-03-14T09:47:52;3.00;;;1.48;;
36001;SDS011;22070;50.922;5.430;2023-03-14T09:50:19;4.45;;;1.70;;
36001;SDS011;22070;50.922;5.430;2023-03-14T09:52:45;2.77;;;1.70;;
36001;SDS011;22070;50.922;5.430;2023-03-14T09:55:16;7.38;;;1.90;;
36001;SDS011;22070;50.922;5.430;2023-03-14T09:57:47;1.73;;;1.58;;
36001;SDS011;22070;50.922;5.430;2023-03-14T10:00:16;3.22;;;1.67;;
36001;SDS011;22070;50.922;5.430;2023-03-14T10:02:46;3.85;;;2.45;;
36001;SDS011;22070;50.922;5.430;2023-03-14T10:05:20;5.72;;;2.00;;
36001;SDS011;22070;50.922;5.430;2023-03-14T10:07:48;4.07;;;2.20;;
36001;SDS011;22070;50.922;5.430;2023-03-14T10:10:16;2.45;;;1.30;;
36001;SDS011;22070;50.922;5.430;2023-03-14T10:12:49;5.15;;;1.25;;
36001;SDS011;22070;50.922;5.430;2023-03-14T10:15:34;3.10;;;1.60;;
36001;SDS011;22070;50.922;5.430;2023-03-14T10:18:01;4.00;;;1.10;;
36001;SDS011;22070;50.922;5.430;2023-03-14T10:23:17;0.63;;;0.63;;
36001;SDS011;22070;50.922;5.430;2023-03-14T10:28:34;1.65;;;0.77;;
36001;SDS011;22070;50.922;5.430;2023-03-14T10:31:25;1.35;;;0.70;;
36001;SDS011;22070;50.922;5.430;2023-03-14T10:33:58;2.70;;;1.02;;
36001;SDS011;22070;50.922;5.430;2023-03-14T10:36:27;2.83;;;1.00;;
36001;SDS011;22070;50.922;5.430;2023-03-14T10:38:58;3.03;;;1.13;;
36001;SDS011;22070;50.922;5.430;2023-03-14T10:41:46;1.52;;;1.10;;
36001;SDS011;22070;50.922;5.430;2023-03-14T10:44:13;1.10;;;0.70;;
36001;SDS011;22070;50.922;5.430;2023-03-14T10:46:43;1.80;;;0.93;;
36001;SDS011;22070;50.922;5.430;2023-03-14T10:49:16;2.45;;;0.75;;
36001;SDS011;22070;50.922;5.430;2023-03-14T10:51:52;1.58;;;0.60;;
36001;SDS011;22070;50.922;5.430;2023-03-14T10:54:21;1.90;;;0.70;;
36001;SDS011;22070;50.922;5.430;2023-03-14T10:57:00;1.88;;;0.63;;
36001;SDS011;22070;50.922;5.430;2023-03-14T10:59:29;0.75;;;0.60;;
36001;SDS011;22070;50.922;5.430;2023-03-14T11:08:07;1.08;;;0.30;;
36001;SDS011;22070;50.922;5.430;2023-03-14T11:10:46;2.17;;;0.40;;
36001;SDS011;22070;50.922;5.430;2023-03-14T11:18:47;3.90;;;0.60;;
36001;SDS011;22070;50.922;5.430;2023-03-14T11:24:25;1.50;;;0.90;;
36001;SDS011;22070;50.922;5.430;2023-03-14T11:32:02;1.30;;;0.50;;
36001;SDS011;22070;50.922;5.430;2023-03-14T11:34:36;2.88;;;0.80;;
36001;SDS011;22070;50.922;5.430;2023-03-14T11:37:14;0.95;;;0.63;;
36001;SDS011;22070;50.922;5.430;2023-03-14T11:39:44;2.25;;;1.13;;
36001;SDS011;22070;50.922;5.430;2023-03-14T11:42:15;2.92;;;1.30;;
36001;SDS011;22070;50.922;5.430;2023-03-14T11:44:46;1.15;;;1.00;;
36001;SDS011;22070;50.922;5.430;2023-03-14T11:47:24;2.90;;;1.30;;
36001;SDS011;22070;50.922;5.430;2023-03-14T11:52:31;2.88;;;0.60;;
36001;SDS011;22070;50.922;5.430;2023-03-14T11:57:44;1.45;;;0.85;;
36001;SDS011;22070;50.922;5.430;2023-03-14T12:00:23;3.22;;;1.52;;
36001;SDS011;22070;50.922;5.430;2023-03-14T12:11:29;2.85;;;1.50;;
36001;SDS011;22070;50.922;5.430;2023-03-14T12:14:15;5.30;;;1.40;;
36001;SDS011;22070;50.922;5.430;2023-03-14T12:20:17;2.15;;;1.10;;
36001;SDS011;22070;50.922;5.430;2023-03-14T12:22:49;2.53;;;1.42;;
36001;SDS011;22070;50.922;5.430;2023-03-14T12:25:19;2.78;;;1.17;;
36001;SDS011;22070;50.922;5.430;2023-03-14T12:30:39;7.97;;;1.50;;
36001;SDS011;22070;50.922;5.430;2023-03-14T12:35:38;2.13;;;1.00;;
36001;SDS011;22070;50.922;5.430;2023-03-14T12:40:40;5.28;;;1.00;;
36001;SDS011;22070;50.922;5.430;2023-03-14T12:43:24;4.97;;;1.23;;
36001;SDS011;22070;50.922;5.430;2023-03-14T12:46:07;7.88;;;1.90;;
36001;SDS011;22070;50.922;5.430;2023-03-14T12:49:05;7.50;;;1.05;;
36001;SDS011;22070;50.922;5.430;2023-03-14T12:51:39;5.28;;;1.23;;
36001;SDS011;22070;50.922;5.430;2023-03-14T12:57:20;4.93;;;1.45;;
36001;SDS011;22070;50.922;5.430;2023-03-14T12:59:57;7.13;;;1.40;;
36001;SDS011;22070;50.922;5.430;2023-03-14T13:05:22;6.60;;;1.48;;
36001;SDS011;22070;50.922;5.430;2023-03-14T13:12:48;9.27;;;1.98;;
36001;SDS011;22070;50.922;5.430;2023-03-14T13:18:08;9.88;;;1.73;;
36001;SDS011;22070;50.922;5.430;2023-03-14T13:20:54;8.10;;;1.60;;
36001;SDS011;22070;50.922;5.430;2023-03-14T13:23:25;8.47;;;1.80;;
36001;SDS011;22070;50.922;5.430;2023-03-14T13:25:53;12.23;;;2.25;;
36001;SDS011;22070;50.922;5.430;2023-03-14T13:28:19;9.73;;;1.60;;
36001;SDS011;22070;50.922;5.430;2023-03-14T13:30:49;12.15;;;1.67;;
36001;SDS011;22070;50.922;5.430;2023-03-14T13:33:20;13.88;;;1.73;;
36001;SDS011;22070;50.922;5.430;2023-03-14T13:35:57;13.13;;;2.00;;
36001;SDS011;22070;50.922;5.430;2023-03-14T13:38:27;14.30;;;2.47;;
36001;SDS011;22070;50.922;5.430;2023-03-14T13:41:04;10.93;;;1.85;;
36001;SDS011;22070;50.922;5.430;2023-03-14T13:43:32;13.88;;;2.35;;
36001;SDS011;22070;50.922;5.430;2023-03-14T13:46:10;12.90;;;2.35;;
36001;SDS011;22070;50.922;5.430;2023-03-14T13:48:41;17.15;;;2.90;;
36001;SDS011;22070;50.922;5.430;2023-03-14T13:51:10;13.10;;;1.77;;
36001;SDS011;22070;50.922;5.430;2023-03-14T13:53:45;12.98;;;2.42;;
36001;SDS011;22070;50.922;5.430;2023-03-14T13:56:14;15.68;;;2.03;;
36001;SDS011;22070;50.922;5.430;2023-03-14T13:58:40;12.73;;;2.83;;
36001;SDS011;22070;50.922;5.430;2023-03-14T14:04:08;10.95;;;2.35;;
36001;SDS011;22070;50.922;5.430;2023-03-14T14:06:44;15.57;;;2.65;;
36001;SDS011;22070;50.922;5.430;2023-03-14T14:09:16;12.63;;;1.85;;
36001;SDS011;22070;50.922;5.430;2023-03-14T14:14:23;16.17;;;2.58;;
36001;SDS011;22070;50.922;5.430;2023-03-14T14:16:54;17.17;;;2.22;;
36001;SDS011;22070;50.922;5.430;2023-03-14T14:19:23;16.40;;;2.50;;
36001;SDS011;22070;50.922;5.430;2023-03-14T14:21:52;22.52;;;3.30;;
36001;SDS011;22070;50.922;5.430;2023-03-14T14:24:19;14.20;;;2.88;;
36001;SDS011;22070;50.922;5.430;2023-03-14T14:26:52;14.63;;;2.42;;
36001;SDS011;22070;50.922;5.430;2023-03-14T14:29:30;14.13;;;2.30;;
36001;SDS011;22070;50.922;5.430;2023-03-14T14:37:33;8.75;;;1.63;;
36001;SDS011;22070;50.922;5.430;2023-03-14T14:40:05;6.30;;;1.50;;
36001;SDS011;22070;50.922;5.430;2023-03-14T14:42:44;15.38;;;1.60;;
36001;SDS011;22070;50.922;5.430;2023-03-14T14:45:12;7.35;;;2.08;;
36001;SDS011;22070;50.922;5.430;2023-03-14T14:50:33;6.70;;;1.30;;
36001;SDS011;22070;50.922;5.430;2023-03-14T14:53:30;4.15;;;1.52;;
36001;SDS011;22070;50.922;5.430;2023-03-14T14:56:04;8.77;;;1.60;;
36001;SDS011;22070;50.922;5.430;2023-03-14T14:58:34;3.25;;;1.30;;
36001;SDS011;22070;50.922;5.430;2023-03-14T15:01:16;12.25;;;2.00;;
36001;SDS011;22070;50.922;5.430;2023-03-14T15:03:45;12.38;;;1.90;;
36001;SDS011;22070;50.922;5.430;2023-03-14T15:06:13;4.95;;;1.33;;
36001;SDS011;22070;50.922;5.430;2023-03-14T15:08:40;10.13;;;1.30;;
36001;SDS011;22070;50.922;5.430;2023-03-14T15:11:09;6.75;;;1.65;;
36001;SDS011;22070;50.922;5.430;2023-03-14T15:13:43;4.93;;;1.98;;
36001;SDS011;22070;50.922;5.430;2023-03-14T15:16:13;8.73;;;1.70;;
36001;SDS011;22070;50.922;5.430;2023-03-14T15:18:41;3.53;;;1.30;;
36001;SDS011;22070;50.922;5.430;2023-03-14T15:21:10;7.32;;;1.65;;
36001;SDS011;22070;50.922;5.430;2023-03-14T15:23:36;8.85;;;1.67;;
36001;SDS011;22070;50.922;5.430;2023-03-14T15:26:02;9.48;;;1.52;;
36001;SDS011;22070;50.922;5.430;2023-03-14T15:28:28;7.87;;;1.30;;
36001;SDS011;22070;50.922;5.430;2023-03-14T15:30:56;3.10;;;1.23;;
36001;SDS011;22070;50.922;5.430;2023-03-14T15:33:23;9.15;;;1.73;;
36001;SDS011;22070;50.922;5.430;2023-03-14T15:35:52;7.30;;;1.40;;
36001;SDS011;22070;50.922;5.430;2023-03-14T15:38:19;6.95;;;1.50;;
36001;SDS011;22070;50.922;5.430;2023-03-14T15:40:47;9.05;;;2.08;;
36001;SDS011;22070;50.922;5.430;2023-03-14T15:43:14;6.97;;;1.60;;
36001;SDS011;22070;50.922;5.430;2023-03-14T15:45:40;15.07;;;1.97;;
36001;SDS011;22070;50.922;5.430;2023-03-14T15:48:06;8.65;;;1.63;;
36001;SDS011;22070;50.922;5.430;2023-03-14T15:50:41;7.60;;;1.55;;
36001;SDS011;22070;50.922;5.430;2023-03-14T15:53:07;7.97;;;1.52;;
36001;SDS011;22070;50.922;5.430;2023-03-14T15:55:32;6.97;;;1.20;;
36001;SDS011;22070;50.922;5.430;2023-03-14T15:57:58;6.13;;;1.20;;
36001;SDS011;22070;50.922;5.430;2023-03-14T16:00:24;6.75;;;1.10;;
36001;SDS011;22070;50.922;5.430;2023-03-14T16:02:51;7.57;;;1.35;;
36001;SDS011;22070;50.922;5.430;2023-03-14T16:05:17;8.57;;;1.38;;
36001;SDS011;22070;50.922;5.430;2023-03-14T16:07:44;6.88;;;1.15;;
36001;SDS011;22070;50.922;5.430;2023-03-14T16:10:10;5.75;;;1.33;;
36001;SDS011;22070;50.922;5.430;2023-03-14T16:15:03;4.23;;;1.00;;
36001;SDS011;22070;50.922;5.430;2023-03-14T16:17:29;7.27;;;1.27;;
36001;SDS011;22070;50.922;5.430;2023-03-14T16:19:54;11.35;;;1.35;;
36001;SDS011;22070;50.922;5.430;2023-03-14T16:22:20;5.05;;;0.70;;
36001;SDS011;22070;50.922;5.430;2023-03-14T16:24:46;7.55;;;1.20;;